Time;durP1;ratioP1;P1;durP2;ratioP2;P2;SDS_P1;SDS_P2;PMS_P1;PMS_P2;Temp;Humidity;BMP_temperature;BMP_pressure;BME280_temperature;BME280_humidity;BME280_pressure;Samples;Min_cycle;Max_cycle;Signal;HPM_P1;HPM_P2
2024/01/31 00:02:37;;;;;;;;;;;;;;;7.44;65.01;99512.00;5061412;28;20265;-55
2024/01/31 00:05:25;;;;;;;;;;;;;;;7.52;64.95;99516.16;5064469;28;19921;-56
2024/01/31 00:08:13;;;;;;;;;;;;;;;7.47;64.93;99511.50;5053675;28;19973;-55
2024/01/31 00:11:01;;;;;;;;;;;;;;;7.49;65.09;99513.94;5059899;28;19920;-56
2024/01/31 00:13:50;;;;;;;;;;;;;;;7.47;65.11;99516.91;5061947;28;19939;-55
2024/01/31 00:16:37;;;;;;;;;;;;;;;7.45;65.53;99518.22;5065564;28;19963;-55
2024/01/31 00:19:27;;;;;;;;;;;;;;;7.37;65.40;99511.38;5064297;28;19951;-54
2024/01/31 00:22:15;;;;;;;;;;;;;;;7.37;65.61;99507.84;5056737;28;20374;-55
2024/01/31 00:25:03;;;;;;;;;;;;;;;7.35;65.37;99503.53;5060595;28;20007;-55
2024/01/31 00:27:51;;;;;;;;;;;;;;;7.38;65.34;99504.91;5054374;28;19978;-55
2024/01/31 00:30:39;;;;;;;;;;;;;;;7.32;65.95;99508.59;5059185;28;19921;-54
2024/01/31 00:33:27;;;;;;;;;;;;;;;7.39;65.63;99511.13;5067977;28;19920;-56
2024/01/31 00:36:17;;;;;;;;;;;;;;;7.43;65.63;99504.16;5064009;28;19924;-56
2024/01/31 00:39:05;;;;;;;;;;;;;;;7.41;65.45;99500.88;5059175;28;19921;-54
2024/01/31 00:41:54;;;;;;;;;;;;;;;7.33;65.90;99507.53;5064678;28;19924;-54
2024/01/31 00:44:43;;;;;;;;;;;;;;;7.34;66.09;99496.47;5058360;28;20011;-56
2024/01/31 00:47:31;;;;;;;;;;;;;;;7.30;66.45;99506.16;5060353;28;20392;-55
2024/01/31 00:50:19;;;;;;;;;;;;;;;7.43;65.75;99498.72;5068519;28;19920;-55
2024/01/31 00:53:08;;;;;;;;;;;;;;;7.38;65.76;99501.38;5062076;28;20278;-55
2024/01/31 00:55:56;;;;;;;;;;;;;;;7.39;66.11;99498.41;5061040;28;19928;-55
2024/01/31 00:58:44;;;;;;;;;;;;;;;7.39;66.00;99497.59;5055071;28;20019;-55
2024/01/31 01:01:32;;;;;;;;;;;;;;;7.33;66.49;99505.63;5056239;28;20361;-55
2024/01/31 01:04:20;;;;;;;;;;;;;;;7.35;66.61;99502.72;5061795;28;19932;-55
2024/01/31 01:07:09;;;;;;;;;;;;;;;7.42;66.23;99505.22;5064606;28;20389;-55
2024/01/31 01:09:58;;;;;;;;;;;;;;;7.44;66.00;99506.59;5068417;28;20035;-55
2024/01/31 01:12:46;;;;;;;;;;;;;;;7.48;66.03;99506.91;5064244;28;19925;-55
2024/01/31 01:15:34;;;;;;;;;;;;;;;7.43;66.27;99510.38;5059828;28;20014;-55
2024/01/31 01:18:22;;;;;;;;;;;;;;;7.30;66.77;99516.97;5062797;28;20247;-54
2024/01/31 01:21:10;;;;;;;;;;;;;;;7.41;66.51;99511.69;5061610;28;19920;-55
2024/01/31 01:23:58;;;;;;;;;;;;;;;7.42;66.57;99514.16;5075356;28;19929;-55
2024/01/31 01:26:47;;;;;;;;;;;;;;;7.36;66.92;99504.34;5069808;28;20018;-56
2024/01/31 01:29:35;;;;;;;;;;;;;;;7.40;67.27;99518.16;5062227;28;19920;-56
2024/01/31 01:32:23;;;;;;;;;;;;;;;7.43;67.22;99517.66;5069803;28;19925;-55
2024/01/31 01:35:11;;;;;;;;;;;;;;;7.41;66.80;99517.09;5068899;28;20036;-54
2024/01/31 01:37:59;;;;;;;;;;;;;;;7.41;67.21;99522.50;5067444;28;20396;-54
2024/01/31 01:40:47;;;;;;;;;;;;;;;7.33;67.79;99524.56;5070615;28;19927;-54
2024/01/31 01:43:37;;;;;;;;;;;;;;;7.45;67.57;99516.31;5071921;28;19928;-54
2024/01/31 01:46:25;;;;;;;;;;;;;;;7.42;67.70;99514.16;5064035;28;20528;-55
2024/01/31 01:49:15;;;;;;;;;;;;;;;7.46;67.65;99509.88;5060659;28;19981;-55
2024/01/31 01:52:03;;;;;;;;;;;;;;;7.47;67.52;99508.81;5065249;28;19920;-56
2024/01/31 01:54:51;;;;;;;;;;;;;;;7.45;67.53;99505.50;5069076;28;20393;-56
2024/01/31 01:57:39;;;;;;;;;;;;;;;7.52;67.61;99502.63;5065090;28;20011;-55
2024/01/31 02:00:31;;;;;;;;;;;;;;;7.51;67.41;99507.22;5062356;28;20580;-56
2024/01/31 02:06:22;;;;;;;;;;;;;;;7.56;67.28;99501.03;1892243;22;19933;-60
2024/01/31 02:09:11;;;;;;;;;;;;;;;7.54;67.81;99500.50;5047702;28;19929;-57
2024/01/31 02:11:59;;;;;;;;;;;;;;;7.53;67.78;99488.84;5050468;28;20022;-56
2024/01/31 02:14:48;;;;;;;;;;;;;;;7.54;67.86;99497.78;5051922;28;20280;-56
2024/01/31 02:17:37;;;;;;;;;;;;;;;7.49;67.74;99495.03;5048448;28;20446;-56
2024/01/31 02:20:27;;;;;;;;;;;;;;;7.42;68.00;99492.50;5052005;28;19925;-61
2024/01/31 02:23:16;;;;;;;;;;;;;;;7.45;68.72;99488.47;5051890;28;19983;-59
2024/01/31 02:26:04;;;;;;;;;;;;;;;7.50;68.20;99491.25;5044693;28;20196;-57
2024/01/31 02:28:52;;;;;;;;;;;;;;;7.46;68.51;99499.06;5050089;28;19967;-56
2024/01/31 02:31:40;;;;;;;;;;;;;;;7.44;68.29;99495.78;5049378;28;19929;-58
2024/01/31 02:34:28;;;;;;;;;;;;;;;7.50;68.58;99492.06;5049751;28;19925;-58
2024/01/31 02:37:16;;;;;;;;;;;;;;;7.46;69.03;99495.53;5044339;28;19936;-57
2024/01/31 02:40:07;;;;;;;;;;;;;;;7.46;68.69;99496.34;5052909;28;20062;-57
2024/01/31 02:42:55;;;;;;;;;;;;;;;7.48;68.52;99490.69;5051851;28;19932;-57
2024/01/31 02:45:43;;;;;;;;;;;;;;;7.48;68.58;99493.38;5051962;28;20317;-57
2024/01/31 02:48:31;;;;;;;;;;;;;;;7.49;68.94;99492.31;5056488;28;20453;-63
2024/01/31 02:51:19;;;;;;;;;;;;;;;7.47;69.14;99489.06;5051127;28;19925;-57
2024/01/31 02:54:11;;;;;;;;;;;;;;;7.44;69.33;99484.13;5047241;28;19932;-57
2024/01/31 02:57:00;;;;;;;;;;;;;;;7.44;69.50;99489.53;5049701;28;19932;-58
2024/01/31 02:59:48;;;;;;;;;;;;;;;7.45;69.63;99483.88;5050255;28;19929;-57
2024/01/31 03:03:03;;;;;;;;;;;;;;;7.41;69.93;99485.47;5047597;28;20486;-56
2024/01/31 03:05:54;;;;;;;;;;;;;;;7.51;69.47;99480.19;5043338;28;20187;-57
2024/01/31 03:08:42;;;;;;;;;;;;;;;7.49;69.48;99481.50;5047879;28;20409;-56
2024/01/31 03:11:30;;;;;;;;;;;;;;;7.48;69.68;99491.50;5051182;28;19925;-57
2024/01/31 03:14:20;;;;;;;;;;;;;;;7.52;69.60;99483.72;5050347;28;19928;-59
2024/01/31 03:17:08;;;;;;;;;;;;;;;7.46;70.08;99471.19;5045930;28;19931;-57
2024/01/31 03:19:56;;;;;;;;;;;;;;;7.52;70.09;99475.59;5034294;28;19946;-57
2024/01/31 03:22:46;;;;;;;;;;;;;;;7.49;70.48;99470.69;5048288;28;20982;-56
2024/01/31 03:25:34;;;;;;;;;;;;;;;7.49;70.67;99476.09;5045653;28;19924;-57
2024/01/31 03:28:23;;;;;;;;;;;;;;;7.48;70.92;99469.06;5048523;28;20280;-57
2024/01/31 03:31:13;;;;;;;;;;;;;;;7.53;70.58;99469.13;5049266;28;19946;-57
2024/01/31 03:34:01;;;;;;;;;;;;;;;7.53;70.13;99477.22;5046018;28;19976;-57
2024/01/31 03:36:50;;;;;;;;;;;;;;;7.57;70.38;99472.94;5043328;28;20018;-58
2024/01/31 03:39:39;;;;;;;;;;;;;;;7.58;70.15;99471.88;5051398;28;19933;-57
2024/01/31 03:42:27;;;;;;;;;;;;;;;7.58;70.64;99467.28;5050833;28;19924;-61
2024/01/31 03:45:16;;;;;;;;;;;;;;;7.58;70.61;99459.16;5047472;28;19994;-57
2024/01/31 03:48:06;;;;;;;;;;;;;;;7.52;70.96;99464.78;5049220;28;20189;-60
2024/01/31 03:50:53;;;;;;;;;;;;;;;7.59;70.38;99471.63;5051899;28;19929;-57
2024/01/31 03:53:41;;;;;;;;;;;;;;;7.61;70.66;99463.25;5047616;28;20016;-60
2024/01/31 03:56:30;;;;;;;;;;;;;;;7.60;70.71;99457.00;5042182;28;19925;-58
2024/01/31 03:59:18;;;;;;;;;;;;;;;7.51;70.96;99458.56;5043078;28;19947;-57
2024/01/31 04:02:07;;;;;;;;;;;;;;;7.58;71.61;99461.88;5043203;28;19967;-57
2024/01/31 04:04:58;;;;;;;;;;;;;;;7.60;71.17;99469.72;5044145;28;20015;-60
2024/01/31 04:07:46;;;;;;;;;;;;;;;7.56;71.77;99471.28;5045552;28;20077;-58
2024/01/31 04:10:36;;;;;;;;;;;;;;;7.61;71.98;99476.75;5041655;28;19925;-58
2024/01/31 04:13:24;;;;;;;;;;;;;;;7.63;72.08;99471.13;5029459;28;19932;-58
2024/01/31 04:16:14;;;;;;;;;;;;;;;7.68;71.74;99479.28;5042433;28;20384;-57
2024/01/31 04:19:02;;;;;;;;;;;;;;;7.67;71.49;99477.63;5044368;28;19928;-57
2024/01/31 04:21:52;;;;;;;;;;;;;;;7.66;72.18;99474.13;5049081;28;19948;-60
2024/01/31 04:24:40;;;;;;;;;;;;;;;7.68;71.62;99480.09;5049629;28;19928;-58
2024/01/31 04:27:28;;;;;;;;;;;;;;;7.71;71.68;99476.88;5040238;28;20365;-56
2024/01/31 04:30:17;;;;;;;;;;;;;;;7.70;72.11;99475.25;5045077;28;19925;-57
2024/01/31 04:33:05;;;;;;;;;;;;;;;7.65;72.70;99475.19;5049015;28;19929;-58
2024/01/31 04:35:53;;;;;;;;;;;;;;;7.72;72.28;99475.81;5036976;28;20342;-57
2024/01/31 04:38:42;;;;;;;;;;;;;;;7.76;72.24;99470.72;5048008;28;19928;-57
2024/01/31 04:41:30;;;;;;;;;;;;;;;7.77;71.73;99472.34;5047703;28;20299;-57
2024/01/31 04:44:19;;;;;;;;;;;;;;;7.72;72.62;99478.50;5043789;28;20398;-57
2024/01/31 04:47:07;;;;;;;;;;;;;;;7.68;72.86;99469.28;5046823;28;19999;-57
2024/01/31 04:49:56;;;;;;;;;;;;;;;7.69;72.64;99465.50;5042468;28;20028;-57
2024/01/31 04:52:45;;;;;;;;;;;;;;;7.70;73.30;99475.25;5047065;28;19925;-59
2024/01/31 04:55:34;;;;;;;;;;;;;;;7.71;73.11;99473.34;5048623;28;20374;-57
2024/01/31 04:58:22;;;;;;;;;;;;;;;7.66;73.38;99479.53;5050012;28;19925;-60
2024/01/31 05:01:10;;;;;;;;;;;;;;;7.66;73.29;99484.94;5053240;28;19925;-57
2024/01/31 05:03:58;;;;;;;;;;;;;;;7.61;73.78;99491.09;5052219;28;20406;-58
2024/01/31 05:06:47;;;;;;;;;;;;;;;7.68;73.49;99488.22;5048886;28;19925;-57
2024/01/31 05:09:35;;;;;;;;;;;;;;;7.71;73.42;99486.88;5049110;28;20086;-56
2024/01/31 05:12:25;;;;;;;;;;;;;;;7.81;72.59;99498.63;5051313;28;20058;-57
2024/01/31 05:15:13;;;;;;;;;;;;;;;7.85;72.86;99496.25;5049246;28;19929;-57
2024/01/31 05:18:01;;;;;;;;;;;;;;;7.92;72.81;99502.25;5047481;28;20290;-58
2024/01/31 05:20:49;;;;;;;;;;;;;;;7.99;72.16;99507.47;5033587;28;19931;-57
2024/01/31 05:23:37;;;;;;;;;;;;;;;8.04;72.17;99510.22;5044699;28;19932;-57
2024/01/31 05:26:25;;;;;;;;;;;;;;;8.16;71.83;99508.19;5046526;28;19928;-58
2024/01/31 05:29:14;;;;;;;;;;;;;;;8.10;71.16;99515.47;5052638;28;19925;-58
2024/01/31 05:32:03;;;;;;;;;;;;;;;8.26;70.45;99510.19;5056952;28;19925;-58
2024/01/31 05:34:51;;;;;;;;;;;;;;;8.25;70.65;99514.75;5046190;28;19960;-62
2024/01/31 05:37:39;;;;;;;;;;;;;;;8.24;71.21;99523.97;5049863;28;20402;-58
2024/01/31 05:40:28;;;;;;;;;;;;;;;8.32;70.75;99523.50;5033482;28;20007;-58
2024/01/31 05:43:18;;;;;;;;;;;;;;;8.18;70.84;99532.31;5048950;28;19932;-59
2024/01/31 05:46:08;;;;;;;;;;;;;;;8.12;72.11;99534.94;5051028;28;19929;-58
2024/01/31 05:48:57;;;;;;;;;;;;;;;8.22;72.45;99536.94;5050012;28;19933;-58
2024/01/31 05:51:46;;;;;;;;;;;;;;;8.16;72.69;99551.50;5049233;28;19935;-57
2024/01/31 05:54:34;;;;;;;;;;;;;;;8.20;71.75;99546.38;5049786;28;20389;-57
2024/01/31 05:57:22;;;;;;;;;;;;;;;7.83;73.06;99553.34;5050564;28;19935;-56
2024/01/31 06:00:11;;;;;;;;;;;;;;;8.04;72.61;99550.81;5050834;28;19929;-56
2024/01/31 06:03:02;;;;;;;;;;;;;;;7.84;73.23;99554.97;5046316;28;19936;-56
2024/01/31 06:05:50;;;;;;;;;;;;;;;8.00;73.19;99560.53;5045585;28;20371;-57
2024/01/31 06:08:39;;;;;;;;;;;;;;;7.86;73.85;99560.91;5047691;28;20298;-56
2024/01/31 06:11:28;;;;;;;;;;;;;;;7.92;73.73;99563.69;5050493;28;20271;-57
2024/01/31 06:14:16;;;;;;;;;;;;;;;7.90;74.12;99560.44;5048515;28;19978;-57
2024/01/31 06:17:05;;;;;;;;;;;;;;;7.65;75.01;99552.81;5048179;28;19925;-57
2024/01/31 06:19:55;;;;;;;;;;;;;;;7.68;75.36;99555.84;5050566;28;19932;-57
2024/01/31 06:22:44;;;;;;;;;;;;;;;7.72;75.28;99561.56;5048383;28;20340;-56
2024/01/31 06:25:33;;;;;;;;;;;;;;;7.67;75.14;99559.63;5048515;28;19929;-57
2024/01/31 06:28:21;;;;;;;;;;;;;;;7.60;75.27;99564.38;5049069;28;19928;-57
2024/01/31 06:31:24;;;;;;;;;;;;;;;7.61;75.22;99563.31;5043924;28;19978;-57
2024/01/31 06:34:12;;;;;;;;;;;;;;;7.83;74.60;99552.50;5055034;28;19937;-56
2024/01/31 06:37:02;;;;;;;;;;;;;;;7.68;75.48;99566.66;5047185;28;19999;-57
2024/01/31 06:39:50;;;;;;;;;;;;;;;7.54;76.01;99582.44;5050366;28;19925;-56
2024/01/31 06:42:38;;;;;;;;;;;;;;;7.55;76.39;99575.13;5049541;28;20283;-58
2024/01/31 06:45:26;;;;;;;;;;;;;;;7.71;75.87;99581.56;5052078;28;19928;-55
2024/01/31 06:48:14;;;;;;;;;;;;;;;7.78;75.89;99576.81;5053817;28;19932;-56
2024/01/31 06:51:02;;;;;;;;;;;;;;;7.83;75.50;99584.97;5052330;28;19925;-57
2024/01/31 06:53:52;;;;;;;;;;;;;;;7.57;76.19;99589.25;5050612;28;19925;-57
2024/01/31 06:56:40;;;;;;;;;;;;;;;7.61;77.00;99585.78;5050402;28;19925;-56
2024/01/31 06:59:28;;;;;;;;;;;;;;;7.81;75.79;99587.91;5040696;28;19925;-57
2024/01/31 07:02:16;;;;;;;;;;;;;;;7.73;76.63;99585.66;5046861;28;19932;-56
2024/01/31 07:05:05;;;;;;;;;;;;;;;7.53;76.81;99588.94;5051139;28;19931;-56
2024/01/31 07:07:53;;;;;;;;;;;;;;;7.63;76.87;99582.84;5046611;28;19936;-56
2024/01/31 07:10:42;;;;;;;;;;;;;;;7.65;77.04;99582.56;5046348;28;20293;-57
2024/01/31 07:13:31;;;;;;;;;;;;;;;7.62;77.31;99578.50;5033778;28;19936;-57
2024/01/31 07:16:19;;;;;;;;;;;;;;;7.78;76.87;99580.31;5040028;28;19925;-57
2024/01/31 07:19:07;;;;;;;;;;;;;;;7.59;77.59;99573.56;5048063;28;19929;-56
2024/01/31 07:21:56;;;;;;;;;;;;;;;7.68;77.03;99569.38;5044291;28;19925;-56
2024/01/31 07:24:44;;;;;;;;;;;;;;;7.55;77.29;99575.97;5045945;28;19925;-58
2024/01/31 07:27:36;;;;;;;;;;;;;;;7.56;77.43;99580.31;5045601;28;19925;-59
2024/01/31 07:30:26;;;;;;;;;;;;;;;7.39;77.83;99574.13;5042177;28;19932;-61
2024/01/31 07:33:14;;;;;;;;;;;;;;;7.78;76.66;99580.31;5047782;28;20023;-56
2024/01/31 07:36:03;;;;;;;;;;;;;;;7.77;76.63;99581.38;5047928;28;20449;-56
2024/01/31 07:38:51;;;;;;;;;;;;;;;7.72;76.46;99583.19;5050215;28;19975;-57
2024/01/31 07:41:38;;;;;;;;;;;;;;;7.64;76.77;99576.34;5047523;28;19932;-59
2024/01/31 07:44:28;;;;;;;;;;;;;;;7.61;77.11;99566.84;5047679;28;19929;-56
2024/01/31 07:47:19;;;;;;;;;;;;;;;7.49;77.41;99568.03;5048900;28;19936;-57
2024/01/31 07:50:07;;;;;;;;;;;;;;;7.38;77.63;99567.09;5050227;28;20004;-57
2024/01/31 07:52:55;;;;;;;;;;;;;;;7.52;77.39;99567.53;5049139;28;19933;-57
2024/01/31 07:55:44;;;;;;;;;;;;;;;7.69;76.27;99568.31;5045291;28;19931;-56
2024/01/31 07:58:32;;;;;;;;;;;;;;;7.45;76.95;99569.59;5049879;28;19925;-57
2024/01/31 08:01:22;;;;;;;;;;;;;;;7.59;76.20;99577.09;5042302;28;19924;-56
2024/01/31 08:04:10;;;;;;;;;;;;;;;7.52;76.90;99584.59;5049458;28;20640;-57
2024/01/31 08:06:58;;;;;;;;;;;;;;;7.59;76.83;99592.50;5043454;28;19929;-56
2024/01/31 08:09:45;;;;;;;;;;;;;;;7.65;76.19;99598.81;5050655;28;20003;-56
2024/01/31 08:12:36;;;;;;;;;;;;;;;7.73;75.82;99584.84;5048181;28;20070;-57
2024/01/31 08:15:24;;;;;;;;;;;;;;;7.80;75.47;99580.88;5046539;28;19929;-56
2024/01/31 08:18:14;;;;;;;;;;;;;;;7.70;75.85;99583.44;5045476;28;19976;-57
2024/01/31 08:21:02;;;;;;;;;;;;;;;7.56;76.62;99579.47;5046348;28;19929;-56
2024/01/31 08:23:50;;;;;;;;;;;;;;;7.85;75.42;99574.72;5044924;28;19932;-56
2024/01/31 08:26:38;;;;;;;;;;;;;;;7.80;74.96;99586.28;5048313;28;19929;-57
2024/01/31 08:29:26;;;;;;;;;;;;;;;8.03;74.66;99593.31;5046248;28;19924;-58
2024/01/31 08:32:15;;;;;;;;;;;;;;;8.06;74.21;99597.41;5049602;28;19925;-57
2024/01/31 08:35:05;;;;;;;;;;;;;;;7.88;74.69;99593.13;5044233;28;19932;-56
2024/01/31 08:37:54;;;;;;;;;;;;;;;7.96;74.47;99592.69;5052774;28;20282;-58
2024/01/31 08:40:43;;;;;;;;;;;;;;;7.84;74.82;99602.84;5039211;28;19931;-57
2024/01/31 08:43:31;;;;;;;;;;;;;;;7.79;74.84;99606.31;5046960;28;19925;-57
2024/01/31 08:46:19;;;;;;;;;;;;;;;7.83;74.60;99615.56;5049929;28;20302;-56
2024/01/31 08:49:07;;;;;;;;;;;;;;;8.09;73.51;99613.13;5042306;28;20392;-56
2024/01/31 08:51:56;;;;;;;;;;;;;;;7.96;73.14;99610.84;5049806;28;19928;-56
2024/01/31 08:54:44;;;;;;;;;;;;;;;7.84;73.28;99609.06;5052325;28;19925;-57
2024/01/31 08:57:33;;;;;;;;;;;;;;;7.85;73.52;99599.06;5047983;28;19924;-58
2024/01/31 09:00:21;;;;;;;;;;;;;;;7.85;73.47;99599.88;5045952;28;19979;-58
2024/01/31 09:03:09;;;;;;;;;;;;;;;8.03;72.80;99601.44;5050285;28;19979;-57
2024/01/31 09:05:57;;;;;;;;;;;;;;;8.13;72.32;99603.44;5052940;28;20371;-57
2024/01/31 09:08:46;;;;;;;;;;;;;;;7.97;72.93;99609.75;5046375;28;19956;-57
2024/01/31 09:11:34;;;;;;;;;;;;;;;7.84;73.27;99614.50;5055226;28;19935;-56
2024/01/31 09:14:22;;;;;;;;;;;;;;;8.00;72.47;99617.38;5047588;28;20387;-60
2024/01/31 09:17:10;;;;;;;;;;;;;;;8.04;72.89;99621.19;5053086;28;20019;-56
2024/01/31 09:19:58;;;;;;;;;;;;;;;8.05;72.22;99609.31;5050375;28;20486;-59
2024/01/31 09:22:46;;;;;;;;;;;;;;;8.24;71.29;99616.03;5052286;28;19982;-60
2024/01/31 09:25:36;;;;;;;;;;;;;;;8.34;70.60;99613.44;5053417;28;19928;-56
2024/01/31 09:28:24;;;;;;;;;;;;;;;8.26;69.96;99611.19;5054301;28;19931;-56
2024/01/31 09:31:19;;;;;;;;;;;;;;;8.19;69.30;99594.31;5050787;28;19954;-56
2024/01/31 09:34:07;;;;;;;;;;;;;;;8.42;69.52;99595.13;5054565;28;19925;-56
2024/01/31 09:36:56;;;;;;;;;;;;;;;8.32;69.22;99598.53;5042087;28;19929;-56
2024/01/31 09:39:44;;;;;;;;;;;;;;;8.50;69.00;99600.06;5035597;28;19925;-55
2024/01/31 09:42:33;;;;;;;;;;;;;;;8.57;68.49;99598.78;5050495;28;19932;-56
2024/01/31 09:45:21;;;;;;;;;;;;;;;8.28;69.26;99594.69;5051973;28;19924;-56
2024/01/31 09:48:10;;;;;;;;;;;;;;;8.37;69.43;99602.13;5064958;28;19929;-58
2024/01/31 09:50:59;;;;;;;;;;;;;;;8.22;69.47;99607.34;5046727;28;19929;-56
2024/01/31 09:53:47;;;;;;;;;;;;;;;8.40;68.44;99615.13;5050255;28;19963;-57
2024/01/31 09:56:36;;;;;;;;;;;;;;;8.33;67.76;99617.22;5046225;28;19932;-56
2024/01/31 09:59:26;;;;;;;;;;;;;;;8.35;67.36;99617.75;5050899;28;20230;-56
2024/01/31 10:02:14;;;;;;;;;;;;;;;8.64;66.25;99625.69;5046011;28;20002;-55
2024/01/31 10:05:03;;;;;;;;;;;;;;;8.50;66.59;99617.13;5051229;28;19956;-57
2024/01/31 10:07:51;;;;;;;;;;;;;;;8.65;66.43;99624.59;5044146;28;19932;-57
2024/01/31 10:10:39;;;;;;;;;;;;;;;8.57;66.19;99606.09;5042317;28;19929;-58
2024/01/31 10:13:27;;;;;;;;;;;;;;;8.58;66.50;99605.84;5045301;28;19924;-56
2024/01/31 10:16:17;;;;;;;;;;;;;;;8.56;66.22;99607.97;5031298;28;19931;-57
2024/01/31 10:19:05;;;;;;;;;;;;;;;8.85;64.32;99603.13;5040238;28;19925;-56
2024/01/31 10:21:55;;;;;;;;;;;;;;;8.76;64.33;99593.81;5040420;28;20493;-59
2024/01/31 10:24:46;;;;;;;;;;;;;;;9.00;62.67;99591.56;5048329;28;19924;-56
2024/01/31 10:27:35;;;;;;;;;;;;;;;9.03;62.75;99592.94;5045228;28;20016;-56
2024/01/31 10:30:23;;;;;;;;;;;;;;;9.11;62.50;99589.75;5039388;28;19995;-58
2024/01/31 10:33:12;;;;;;;;;;;;;;;9.08;62.29;99590.25;5046352;28;20371;-57
2024/01/31 10:36:01;;;;;;;;;;;;;;;8.75;63.10;99603.03;5042166;28;20382;-59
2024/01/31 10:39:10;;;;;;;;;;;;;;;8.88;63.08;99597.16;5047860;28;19935;-57
2024/01/31 10:41:59;;;;;;;;;;;;;;;9.00;61.84;99604.28;5050257;28;19929;-57
2024/01/31 10:44:47;;;;;;;;;;;;;;;8.97;63.04;99607.53;5046786;28;20029;-57
2024/01/31 10:47:35;;;;;;;;;;;;;;;9.15;62.59;99613.34;5045266;28;19925;-56
2024/01/31 10:50:24;;;;;;;;;;;;;;;8.97;62.78;99604.81;5048435;28;19929;-57
2024/01/31 10:53:13;;;;;;;;;;;;;;;9.05;62.77;99607.84;5048298;28;19936;-57
2024/01/31 10:56:01;;;;;;;;;;;;;;;9.16;62.68;99597.91;5046510;28;20006;-57
2024/01/31 10:58:49;;;;;;;;;;;;;;;9.14;62.31;99592.75;5043317;28;19924;-56
2024/01/31 11:01:37;;;;;;;;;;;;;;;9.30;61.60;99576.56;5049577;28;19931;-57
2024/01/31 11:04:25;;;;;;;;;;;;;;;9.33;61.29;99573.34;5047787;28;20388;-56
2024/01/31 11:07:19;;;;;;;;;;;;;;;9.15;61.66;99577.28;5049232;28;19933;-57
2024/01/31 11:10:08;;;;;;;;;;;;;;;9.11;62.53;99584.34;5049726;28;19929;-56
2024/01/31 11:12:57;;;;;;;;;;;;;;;9.01;63.30;99595.09;5049966;28;20066;-58
2024/01/31 11:15:45;;;;;;;;;;;;;;;8.96;63.33;99595.06;5050233;28;19970;-56
2024/01/31 11:18:33;;;;;;;;;;;;;;;9.14;62.97;99595.47;5052219;28;19925;-56
2024/01/31 11:21:22;;;;;;;;;;;;;;;9.10;63.13;99593.53;5047317;28;19929;-56
2024/01/31 11:24:14;;;;;;;;;;;;;;;8.96;64.21;99581.50;5044545;28;19929;-57
2024/01/31 11:27:03;;;;;;;;;;;;;;;8.97;63.43;99572.28;5043135;28;20309;-58
2024/01/31 11:29:52;;;;;;;;;;;;;;;9.15;63.47;99571.88;5052882;28;20344;-56
2024/01/31 11:32:40;;;;;;;;;;;;;;;9.28;63.28;99566.00;5048443;28;19931;-56
2024/01/31 11:35:28;;;;;;;;;;;;;;;9.29;63.06;99559.50;5050481;28;19925;-56
2024/01/31 11:38:17;;;;;;;;;;;;;;;9.25;62.84;99538.56;5051222;28;20394;-56
2024/01/31 11:41:06;;;;;;;;;;;;;;;9.28;62.58;99530.75;5050379;28;20423;-56
2024/01/31 11:43:54;;;;;;;;;;;;;;;9.47;62.29;99528.38;5045897;28;19925;-56
2024/01/31 11:46:42;;;;;;;;;;;;;;;9.54;62.21;99528.97;5047520;28;20010;-58
2024/01/31 11:49:31;;;;;;;;;;;;;;;9.57;62.05;99528.44;5051279;28;19940;-56
2024/01/31 11:52:19;;;;;;;;;;;;;;;9.60;62.54;99532.53;5039394;28;19991;-55
2024/01/31 11:55:08;;;;;;;;;;;;;;;9.35;62.64;99525.88;5051063;28;20412;-56
2024/01/31 11:57:57;;;;;;;;;;;;;;;9.33;63.43;99519.91;5053861;28;19947;-56
2024/01/31 12:00:45;;;;;;;;;;;;;;;9.71;61.99;99518.72;5047836;28;19929;-56
2024/01/31 12:03:34;;;;;;;;;;;;;;;9.54;62.61;99533.59;5049279;28;19977;-57
2024/01/31 12:06:22;;;;;;;;;;;;;;;9.61;62.34;99531.44;5051223;28;20021;-55
2024/01/31 12:09:10;;;;;;;;;;;;;;;9.83;61.43;99537.47;5052765;28;20014;-56
2024/01/31 12:11:58;;;;;;;;;;;;;;;9.78;61.31;99531.22;5053225;28;19925;-56
2024/01/31 12:14:48;;;;;;;;;;;;;;;9.81;60.64;99528.81;5043654;28;19925;-56
2024/01/31 12:17:36;;;;;;;;;;;;;;;9.94;60.08;99516.63;5051804;28;19924;-56
2024/01/31 12:20:25;;;;;;;;;;;;;;;9.84;60.85;99520.09;5049019;28;19964;-57
2024/01/31 12:23:14;;;;;;;;;;;;;;;9.79;61.36;99511.13;5033811;28;19925;-56
2024/01/31 12:26:02;;;;;;;;;;;;;;;9.82;60.54;99506.00;5032355;28;19936;-56
2024/01/31 12:28:53;;;;;;;;;;;;;;;9.95;60.82;99508.19;5031222;28;19925;-56
2024/01/31 12:31:45;;;;;;;;;;;;;;;9.76;60.47;99508.97;5041729;28;19986;-56
2024/01/31 12:34:36;;;;;;;;;;;;;;;9.80;60.10;99502.75;5050605;28;20346;-56
2024/01/31 12:37:24;;;;;;;;;;;;;;;9.95;59.38;99510.91;5059954;28;20007;-56
2024/01/31 12:40:12;;;;;;;;;;;;;;;9.87;59.71;99513.34;5047556;28;20055;-56
2024/01/31 12:43:00;;;;;;;;;;;;;;;9.98;59.67;99520.44;5049345;28;19925;-56
2024/01/31 12:45:49;;;;;;;;;;;;;;;9.76;59.71;99517.13;5050620;28;19932;-56
2024/01/31 12:48:38;;;;;;;;;;;;;;;9.88;59.62;99512.25;5037867;28;19925;-56
2024/01/31 12:51:26;;;;;;;;;;;;;;;9.88;59.43;99518.50;5045916;28;20006;-56
2024/01/31 12:54:14;;;;;;;;;;;;;;;9.91;59.58;99515.25;5046400;28;19924;-55
2024/01/31 12:57:03;;;;;;;;;;;;;;;9.93;60.02;99509.56;5047580;28;20402;-56
2024/01/31 12:59:52;;;;;;;;;;;;;;;9.67;60.00;99508.66;5033521;28;19980;-57
2024/01/31 13:02:40;;;;;;;;;;;;;;;9.91;58.74;99504.41;5039809;28;19925;-57
2024/01/31 13:05:29;;;;;;;;;;;;;;;10.06;58.22;99502.78;5039367;28;19924;-57
2024/01/31 13:08:17;;;;;;;;;;;;;;;10.05;58.81;99501.97;5049061;28;19929;-56
2024/01/31 13:11:09;;;;;;;;;;;;;;;9.83;58.39;99485.91;5045404;28;20399;-56
2024/01/31 13:13:57;;;;;;;;;;;;;;;9.76;58.16;99488.06;5038863;28;19933;-56
2024/01/31 13:16:44;;;;;;;;;;;;;;;9.99;57.42;99478.63;5047229;28;19932;-56
2024/01/31 13:19:41;;;;;;;;;;;;;;;9.71;57.97;99482.63;5043439;28;20391;-57
2024/01/31 13:22:31;;;;;;;;;;;;;;;9.85;57.46;99486.44;5049855;28;19935;-56
2024/01/31 13:25:19;;;;;;;;;;;;;;;9.88;58.10;99482.41;5052188;28;19925;-58
2024/01/31 13:28:07;;;;;;;;;;;;;;;9.68;58.13;99478.53;5047842;28;19939;-57
2024/01/31 13:30:55;;;;;;;;;;;;;;;9.78;58.39;99491.31;5049711;28;20752;-57
2024/01/31 13:33:43;;;;;;;;;;;;;;;9.77;58.26;99491.59;5051112;28;20087;-57
2024/01/31 13:36:31;;;;;;;;;;;;;;;9.80;57.39;99488.34;5045603;28;20441;-57
2024/01/31 13:39:20;;;;;;;;;;;;;;;9.83;57.35;99487.81;5047585;28;20400;-57
2024/01/31 13:42:08;;;;;;;;;;;;;;;9.81;57.25;99471.81;5048328;28;19936;-57
2024/01/31 13:44:59;;;;;;;;;;;;;;;9.69;58.23;99463.91;5050207;28;19932;-57
2024/01/31 13:47:47;;;;;;;;;;;;;;;9.78;57.91;99457.94;5049912;28;19932;-57
2024/01/31 13:50:38;;;;;;;;;;;;;;;9.47;59.11;99457.03;5048382;28;19925;-57
2024/01/31 13:53:26;;;;;;;;;;;;;;;9.74;58.31;99457.66;5047682;28;20390;-56
2024/01/31 13:56:15;;;;;;;;;;;;;;;9.60;57.97;99448.41;5052602;28;20496;-56
2024/01/31 13:59:03;;;;;;;;;;;;;;;9.67;57.71;99438.91;5047000;28;19986;-57
2024/01/31 14:01:51;;;;;;;;;;;;;;;9.73;58.44;99428.06;5047572;28;20026;-57
2024/01/31 14:04:39;;;;;;;;;;;;;;;9.76;57.99;99427.56;5051017;28;20420;-57
2024/01/31 14:07:27;;;;;;;;;;;;;;;9.70;57.91;99429.44;5047522;28;20410;-58
2024/01/31 14:10:15;;;;;;;;;;;;;;;9.77;58.33;99418.31;5049547;28;19932;-56
2024/01/31 14:13:04;;;;;;;;;;;;;;;9.71;58.65;99418.31;5048695;28;19975;-56
2024/01/31 14:15:53;;;;;;;;;;;;;;;9.80;58.98;99418.59;5050388;28;19931;-56
2024/01/31 14:18:41;;;;;;;;;;;;;;;9.83;58.23;99400.94;5049738;28;19929;-57
2024/01/31 14:21:30;;;;;;;;;;;;;;;9.77;59.06;99389.28;5045931;28;19924;-56
2024/01/31 14:24:18;;;;;;;;;;;;;;;9.45;59.20;99378.63;5049453;28;19929;-56
2024/01/31 14:27:10;;;;;;;;;;;;;;;9.75;58.84;99371.63;5044554;28;19932;-56
2024/01/31 14:29:59;;;;;;;;;;;;;;;9.77;58.71;99370.28;5041926;28;20298;-55
2024/01/31 14:32:47;;;;;;;;;;;;;;;9.90;58.84;99364.28;5050780;28;20086;-56
2024/01/31 14:35:36;;;;;;;;;;;;;;;9.90;58.67;99368.91;5048681;28;19924;-56
2024/01/31 14:38:25;;;;;;;;;;;;;;;10.02;58.07;99357.81;5047749;28;19936;-60
2024/01/31 14:41:12;;;;;;;;;;;;;;;9.96;58.44;99363.25;5048405;28;19925;-56
2024/01/31 14:44:01;;;;;;;;;;;;;;;9.98;57.96;99371.09;5053891;28;19929;-56
2024/01/31 14:46:50;;;;;;;;;;;;;;;9.85;57.97;99372.44;5051837;28;19932;-55
2024/01/31 14:49:38;;;;;;;;;;;;;;;9.85;57.98;99375.16;5070675;22;19926;-75
2024/01/31 14:52:29;;;;;;;;;;;;;;;9.83;57.79;99381.94;5000069;28;20413;-73
2024/01/31 14:55:18;;;;;;;;;;;;;;;9.88;57.55;99381.97;5006113;28;20027;-74